sensor_id;sensor_type;location;lat;lon;timestamp;P1;durP1;ratioP1;P2;durP2;ratioP2
53052;SDS011;38934;52.690;6.184;2023-11-19T00:00:16;86.05;;;27.10;;
53052;SDS011;38934;52.690;6.184;2023-11-19T00:02:42;66.25;;;24.70;;
53052;SDS011;38934;52.690;6.184;2023-11-19T00:05:08;72.70;;;25.92;;
53052;SDS011;38934;52.690;6.184;2023-11-19T00:07:36;70.13;;;24.45;;
53052;SDS011;38934;52.690;6.184;2023-11-19T00:10:06;75.45;;;23.85;;
53052;SDS011;38934;52.690;6.184;2023-11-19T00:12:38;67.45;;;23.35;;
53052;SDS011;38934;52.690;6.184;2023-11-19T00:15:09;65.60;;;22.90;;
53052;SDS011;38934;52.690;6.184;2023-11-19T00:17:39;64.95;;;22.33;;
53052;SDS011;38934;52.690;6.184;2023-11-19T00:20:10;65.05;;;22.67;;
53052;SDS011;38934;52.690;6.184;2023-11-19T00:22:36;58.58;;;21.15;;
53052;SDS011;38934;52.690;6.184;2023-11-19T00:25:02;61.35;;;19.63;;
53052;SDS011;38934;52.690;6.184;2023-11-19T00:27:28;58.50;;;18.83;;
53052;SDS011;38934;52.690;6.184;2023-11-19T00:29:54;49.78;;;16.13;;
53052;SDS011;38934;52.690;6.184;2023-11-19T00:32:19;49.10;;;16.48;;
53052;SDS011;38934;52.690;6.184;2023-11-19T00:34:45;50.28;;;15.98;;
53052;SDS011;38934;52.690;6.184;2023-11-19T00:37:12;47.72;;;15.45;;
53052;SDS011;38934;52.690;6.184;2023-11-19T00:39:39;56.85;;;13.70;;
53052;SDS011;38934;52.690;6.184;2023-11-19T00:42:04;43.92;;;13.32;;
53052;SDS011;38934;52.690;6.184;2023-11-19T00:44:30;38.42;;;13.27;;
53052;SDS011;38934;52.690;6.184;2023-11-19T00:46:56;39.40;;;13.85;;
53052;SDS011;38934;52.690;6.184;2023-11-19T00:49:22;49.22;;;12.57;;
53052;SDS011;38934;52.690;6.184;2023-11-19T00:51:47;51.05;;;13.48;;
53052;SDS011;38934;52.690;6.184;2023-11-19T00:54:14;40.55;;;13.68;;
53052;SDS011;38934;52.690;6.184;2023-11-19T00:56:39;39.58;;;11.82;;
53052;SDS011;38934;52.690;6.184;2023-11-19T00:59:05;46.55;;;13.05;;
53052;SDS011;38934;52.690;6.184;2023-11-19T01:01:30;42.78;;;12.15;;
53052;SDS011;38934;52.690;6.184;2023-11-19T01:03:56;49.90;;;12.57;;
53052;SDS011;38934;52.690;6.184;2023-11-19T01:06:30;41.67;;;12.20;;
53052;SDS011;38934;52.690;6.184;2023-11-19T01:08:57;38.83;;;11.68;;
53052;SDS011;38934;52.690;6.184;2023-11-19T01:11:24;40.65;;;11.85;;
53052;SDS011;38934;52.690;6.184;2023-11-19T01:13:50;39.97;;;11.90;;
53052;SDS011;38934;52.690;6.184;2023-11-19T01:16:16;35.58;;;9.80;;
53052;SDS011;38934;52.690;6.184;2023-11-19T01:18:42;34.25;;;10.25;;
53052;SDS011;38934;52.690;6.184;2023-11-19T01:21:08;49.83;;;9.93;;
53052;SDS011;38934;52.690;6.184;2023-11-19T01:23:34;36.70;;;9.77;;
53052;SDS011;38934;52.690;6.184;2023-11-19T01:26:00;30.23;;;8.48;;
53052;SDS011;38934;52.690;6.184;2023-11-19T01:28:25;30.55;;;8.07;;
53052;SDS011;38934;52.690;6.184;2023-11-19T01:30:51;39.97;;;8.50;;
53052;SDS011;38934;52.690;6.184;2023-11-19T01:33:17;34.85;;;7.82;;
53052;SDS011;38934;52.690;6.184;2023-11-19T01:35:43;44.75;;;7.28;;
53052;SDS011;38934;52.690;6.184;2023-11-19T01:38:09;44.90;;;7.05;;
53052;SDS011;38934;52.690;6.184;2023-11-19T01:40:35;30.52;;;6.50;;
53052;SDS011;38934;52.690;6.184;2023-11-19T01:43:03;37.42;;;6.32;;
53052;SDS011;38934;52.690;6.184;2023-11-19T01:45:29;36.88;;;6.90;;
53052;SDS011;38934;52.690;6.184;2023-11-19T01:47:56;33.95;;;6.07;;
53052;SDS011;38934;52.690;6.184;2023-11-19T01:50:23;36.28;;;6.22;;
53052;SDS011;38934;52.690;6.184;2023-11-19T01:52:52;38.25;;;7.28;;
53052;SDS011;38934;52.690;6.184;2023-11-19T01:55:19;33.22;;;6.03;;
53052;SDS011;38934;52.690;6.184;2023-11-19T01:57:47;39.53;;;6.25;;
53052;SDS011;38934;52.690;6.184;2023-11-19T02:00:14;40.78;;;6.30;;
53052;SDS011;38934;52.690;6.184;2023-11-19T02:02:41;37.15;;;6.72;;
53052;SDS011;38934;52.690;6.184;2023-11-19T02:05:08;35.78;;;7.10;;
53052;SDS011;38934;52.690;6.184;2023-11-19T02:07:36;42.30;;;6.68;;
53052;SDS011;38934;52.690;6.184;2023-11-19T02:10:02;37.35;;;6.88;;
53052;SDS011;38934;52.690;6.184;2023-11-19T02:12:30;40.40;;;7.00;;
53052;SDS011;38934;52.690;6.184;2023-11-19T02:14:59;39.15;;;7.20;;
53052;SDS011;38934;52.690;6.184;2023-11-19T02:17:25;43.33;;;6.47;;
53052;SDS011;38934;52.690;6.184;2023-11-19T02:19:56;31.55;;;5.65;;
53052;SDS011;38934;52.690;6.184;2023-11-19T02:22:23;39.33;;;6.53;;
53052;SDS011;38934;52.690;6.184;2023-11-19T02:24:49;39.35;;;6.53;;
53052;SDS011;38934;52.690;6.184;2023-11-19T02:30:05;40.92;;;6.20;;
53052;SDS011;38934;52.690;6.184;2023-11-19T02:32:33;36.97;;;5.90;;
53052;SDS011;38934;52.690;6.184;2023-11-19T02:35:00;35.45;;;6.20;;
53052;SDS011;38934;52.690;6.184;2023-11-19T02:37:26;35.25;;;6.25;;
53052;SDS011;38934;52.690;6.184;2023-11-19T02:39:53;37.88;;;7.32;;
53052;SDS011;38934;52.690;6.184;2023-11-19T02:42:19;34.63;;;6.53;;
53052;SDS011;38934;52.690;6.184;2023-11-19T02:44:44;43.65;;;7.25;;
53052;SDS011;38934;52.690;6.184;2023-11-19T02:47:11;40.80;;;6.95;;
53052;SDS011;38934;52.690;6.184;2023-11-19T02:49:37;46.33;;;6.30;;
53052;SDS011;38934;52.690;6.184;2023-11-19T02:52:03;41.88;;;6.82;;
53052;SDS011;38934;52.690;6.184;2023-11-19T02:54:30;46.17;;;6.95;;
53052;SDS011;38934;52.690;6.184;2023-11-19T02:57:00;45.88;;;6.50;;
53052;SDS011;38934;52.690;6.184;2023-11-19T02:59:27;48.08;;;6.72;;
53052;SDS011;38934;52.690;6.184;2023-11-19T03:01:53;46.70;;;7.18;;
53052;SDS011;38934;52.690;6.184;2023-11-19T03:04:20;43.40;;;7.32;;
53052;SDS011;38934;52.690;6.184;2023-11-19T03:06:46;42.72;;;6.88;;
53052;SDS011;38934;52.690;6.184;2023-11-19T03:09:12;43.42;;;6.80;;
53052;SDS011;38934;52.690;6.184;2023-11-19T03:11:37;44.25;;;7.43;;
53052;SDS011;38934;52.690;6.184;2023-11-19T03:14:03;41.13;;;6.60;;
53052;SDS011;38934;52.690;6.184;2023-11-19T03:16:29;34.53;;;6.25;;
53052;SDS011;38934;52.690;6.184;2023-11-19T03:18:55;43.53;;;8.48;;
53052;SDS011;38934;52.690;6.184;2023-11-19T03:21:30;47.30;;;7.07;;
53052;SDS011;38934;52.690;6.184;2023-11-19T03:23:56;37.72;;;6.60;;
53052;SDS011;38934;52.690;6.184;2023-11-19T03:26:26;48.47;;;6.82;;
53052;SDS011;38934;52.690;6.184;2023-11-19T03:28:52;47.00;;;8.15;;
53052;SDS011;38934;52.690;6.184;2023-11-19T03:31:18;43.47;;;6.97;;
53052;SDS011;38934;52.690;6.184;2023-11-19T03:33:44;41.10;;;6.80;;
53052;SDS011;38934;52.690;6.184;2023-11-19T03:36:10;45.55;;;7.22;;
53052;SDS011;38934;52.690;6.184;2023-11-19T03:38:36;51.17;;;7.40;;
53052;SDS011;38934;52.690;6.184;2023-11-19T03:41:09;49.60;;;7.47;;
53052;SDS011;38934;52.690;6.184;2023-11-19T03:43:38;48.28;;;7.47;;
53052;SDS011;38934;52.690;6.184;2023-11-19T03:46:05;42.70;;;6.90;;
53052;SDS011;38934;52.690;6.184;2023-11-19T03:48:40;40.33;;;6.70;;
53052;SDS011;38934;52.690;6.184;2023-11-19T03:51:06;50.88;;;7.40;;
53052;SDS011;38934;52.690;6.184;2023-11-19T03:53:31;44.40;;;6.78;;
53052;SDS011;38934;52.690;6.184;2023-11-19T03:55:57;39.35;;;6.85;;
53052;SDS011;38934;52.690;6.184;2023-11-19T03:58:23;35.45;;;6.47;;
53052;SDS011;38934;52.690;6.184;2023-11-19T04:00:49;36.33;;;7.50;;
53052;SDS011;38934;52.690;6.184;2023-11-19T04:03:15;43.05;;;7.88;;
53052;SDS011;38934;52.690;6.184;2023-11-19T04:05:40;44.75;;;6.95;;
53052;SDS011;38934;52.690;6.184;2023-11-19T04:08:06;42.67;;;7.13;;
53052;SDS011;38934;52.690;6.184;2023-11-19T04:10:31;38.78;;;6.45;;
53052;SDS011;38934;52.690;6.184;2023-11-19T04:12:57;39.22;;;6.70;;
53052;SDS011;38934;52.690;6.184;2023-11-19T04:15:23;43.85;;;6.53;;
53052;SDS011;38934;52.690;6.184;2023-11-19T04:17:49;40.22;;;6.80;;
53052;SDS011;38934;52.690;6.184;2023-11-19T04:20:14;41.97;;;7.25;;
53052;SDS011;38934;52.690;6.184;2023-11-19T04:22:40;41.88;;;6.55;;
53052;SDS011;38934;52.690;6.184;2023-11-19T04:25:06;62.15;;;7.72;;
53052;SDS011;38934;52.690;6.184;2023-11-19T04:27:32;44.65;;;6.75;;
53052;SDS011;38934;52.690;6.184;2023-11-19T04:29:57;48.22;;;6.78;;
53052;SDS011;38934;52.690;6.184;2023-11-19T04:32:23;49.53;;;7.43;;
53052;SDS011;38934;52.690;6.184;2023-11-19T04:34:50;39.97;;;6.38;;
53052;SDS011;38934;52.690;6.184;2023-11-19T04:37:16;47.63;;;7.15;;
53052;SDS011;38934;52.690;6.184;2023-11-19T04:39:41;43.17;;;7.10;;
53052;SDS011;38934;52.690;6.184;2023-11-19T04:42:09;40.00;;;6.68;;
53052;SDS011;38934;52.690;6.184;2023-11-19T04:44:35;36.85;;;6.53;;
53052;SDS011;38934;52.690;6.184;2023-11-19T04:47:01;47.85;;;6.90;;
53052;SDS011;38934;52.690;6.184;2023-11-19T04:49:26;49.60;;;7.28;;
53052;SDS011;38934;52.690;6.184;2023-11-19T04:51:52;38.35;;;6.45;;
53052;SDS011;38934;52.690;6.184;2023-11-19T04:54:18;45.90;;;6.65;;
53052;SDS011;38934;52.690;6.184;2023-11-19T04:56:45;52.70;;;7.10;;
53052;SDS011;38934;52.690;6.184;2023-11-19T04:59:12;49.92;;;8.27;;
53052;SDS011;38934;52.690;6.184;2023-11-19T05:01:38;47.88;;;7.15;;
53052;SDS011;38934;52.690;6.184;2023-11-19T05:04:03;46.50;;;7.47;;
53052;SDS011;38934;52.690;6.184;2023-11-19T05:06:29;39.15;;;7.22;;
53052;SDS011;38934;52.690;6.184;2023-11-19T05:08:56;49.75;;;8.23;;
53052;SDS011;38934;52.690;6.184;2023-11-19T05:11:33;47.92;;;7.25;;
53052;SDS011;38934;52.690;6.184;2023-11-19T05:13:59;40.45;;;6.97;;
53052;SDS011;38934;52.690;6.184;2023-11-19T05:16:25;47.20;;;7.75;;
53052;SDS011;38934;52.690;6.184;2023-11-19T05:18:51;44.75;;;7.35;;
53052;SDS011;38934;52.690;6.184;2023-11-19T05:21:16;45.58;;;6.80;;
53052;SDS011;38934;52.690;6.184;2023-11-19T05:23:42;44.78;;;6.60;;
53052;SDS011;38934;52.690;6.184;2023-11-19T05:26:08;41.80;;;6.53;;
53052;SDS011;38934;52.690;6.184;2023-11-19T05:28:37;30.90;;;6.10;;
53052;SDS011;38934;52.690;6.184;2023-11-19T05:31:04;41.78;;;6.70;;
53052;SDS011;38934;52.690;6.184;2023-11-19T05:33:30;40.65;;;7.18;;
53052;SDS011;38934;52.690;6.184;2023-11-19T05:35:56;41.10;;;6.43;;
53052;SDS011;38934;52.690;6.184;2023-11-19T05:38:22;50.78;;;7.22;;
53052;SDS011;38934;52.690;6.184;2023-11-19T05:40:48;50.45;;;7.85;;
53052;SDS011;38934;52.690;6.184;2023-11-19T05:43:14;35.50;;;6.38;;
53052;SDS011;38934;52.690;6.184;2023-11-19T05:45:41;38.85;;;6.50;;
53052;SDS011;38934;52.690;6.184;2023-11-19T05:48:07;47.22;;;7.32;;
53052;SDS011;38934;52.690;6.184;2023-11-19T05:50:34;40.97;;;6.53;;
53052;SDS011;38934;52.690;6.184;2023-11-19T05:53:00;42.15;;;7.35;;
53052;SDS011;38934;52.690;6.184;2023-11-19T05:55:26;37.40;;;6.47;;
53052;SDS011;38934;52.690;6.184;2023-11-19T05:57:53;49.38;;;8.15;;
53052;SDS011;38934;52.690;6.184;2023-11-19T06:00:19;42.70;;;6.60;;
53052;SDS011;38934;52.690;6.184;2023-11-19T06:02:45;46.47;;;7.38;;
53052;SDS011;38934;52.690;6.184;2023-11-19T06:05:10;46.45;;;7.63;;
53052;SDS011;38934;52.690;6.184;2023-11-19T06:07:36;43.38;;;7.03;;
53052;SDS011;38934;52.690;6.184;2023-11-19T06:10:04;37.80;;;6.57;;
53052;SDS011;38934;52.690;6.184;2023-11-19T06:12:31;40.67;;;6.55;;
53052;SDS011;38934;52.690;6.184;2023-11-19T06:14:59;44.83;;;7.18;;
53052;SDS011;38934;52.690;6.184;2023-11-19T06:17:25;38.00;;;6.95;;
53052;SDS011;38934;52.690;6.184;2023-11-19T06:19:51;41.22;;;7.10;;
53052;SDS011;38934;52.690;6.184;2023-11-19T06:22:17;40.72;;;6.70;;
53052;SDS011;38934;52.690;6.184;2023-11-19T06:24:42;37.33;;;7.00;;
53052;SDS011;38934;52.690;6.184;2023-11-19T06:27:08;50.85;;;7.50;;
53052;SDS011;38934;52.690;6.184;2023-11-19T06:29:34;39.67;;;6.65;;
53052;SDS011;38934;52.690;6.184;2023-11-19T06:32:00;46.70;;;7.32;;
53052;SDS011;38934;52.690;6.184;2023-11-19T06:34:25;44.85;;;7.75;;
53052;SDS011;38934;52.690;6.184;2023-11-19T06:36:51;37.08;;;6.10;;
53052;SDS011;38934;52.690;6.184;2023-11-19T06:39:17;44.22;;;7.25;;
53052;SDS011;38934;52.690;6.184;2023-11-19T06:41:46;46.08;;;7.03;;
53052;SDS011;38934;52.690;6.184;2023-11-19T06:44:12;41.50;;;7.00;;
53052;SDS011;38934;52.690;6.184;2023-11-19T06:46:38;33.80;;;6.00;;
53052;SDS011;38934;52.690;6.184;2023-11-19T06:49:04;48.33;;;6.35;;
53052;SDS011;38934;52.690;6.184;2023-11-19T06:51:30;46.67;;;6.57;;
53052;SDS011;38934;52.690;6.184;2023-11-19T06:53:55;32.75;;;6.80;;
53052;SDS011;38934;52.690;6.184;2023-11-19T06:56:21;39.05;;;6.85;;
53052;SDS011;38934;52.690;6.184;2023-11-19T06:58:48;35.70;;;6.35;;
53052;SDS011;38934;52.690;6.184;2023-11-19T07:01:15;40.47;;;6.10;;
53052;SDS011;38934;52.690;6.184;2023-11-19T07:03:47;43.20;;;6.72;;
53052;SDS011;38934;52.690;6.184;2023-11-19T07:06:13;45.72;;;7.05;;
53052;SDS011;38934;52.690;6.184;2023-11-19T07:08:39;42.15;;;7.07;;
53052;SDS011;38934;52.690;6.184;2023-11-19T07:11:06;36.72;;;6.28;;
53052;SDS011;38934;52.690;6.184;2023-11-19T07:13:34;41.03;;;6.72;;
53052;SDS011;38934;52.690;6.184;2023-11-19T07:16:00;39.92;;;6.57;;
53052;SDS011;38934;52.690;6.184;2023-11-19T07:18:26;41.00;;;6.95;;
53052;SDS011;38934;52.690;6.184;2023-11-19T07:20:51;44.30;;;6.47;;
53052;SDS011;38934;52.690;6.184;2023-11-19T07:23:18;34.10;;;6.20;;
53052;SDS011;38934;52.690;6.184;2023-11-19T07:25:44;35.03;;;5.78;;
53052;SDS011;38934;52.690;6.184;2023-11-19T07:28:11;36.60;;;6.03;;
53052;SDS011;38934;52.690;6.184;2023-11-19T07:30:37;33.40;;;5.60;;
53052;SDS011;38934;52.690;6.184;2023-11-19T07:33:03;45.53;;;6.88;;
53052;SDS011;38934;52.690;6.184;2023-11-19T07:35:29;40.63;;;6.50;;
53052;SDS011;38934;52.690;6.184;2023-11-19T07:37:56;32.88;;;5.82;;
53052;SDS011;38934;52.690;6.184;2023-11-19T07:40:22;40.33;;;6.55;;
53052;SDS011;38934;52.690;6.184;2023-11-19T07:42:48;34.38;;;6.25;;
53052;SDS011;38934;52.690;6.184;2023-11-19T07:45:14;34.67;;;5.78;;
53052;SDS011;38934;52.690;6.184;2023-11-19T07:47:40;41.30;;;6.60;;
53052;SDS011;38934;52.690;6.184;2023-11-19T07:50:06;38.08;;;6.43;;
53052;SDS011;38934;52.690;6.184;2023-11-19T07:52:32;33.83;;;5.45;;
53052;SDS011;38934;52.690;6.184;2023-11-19T07:54:58;36.45;;;6.70;;
53052;SDS011;38934;52.690;6.184;2023-11-19T07:57:23;38.20;;;6.47;;
53052;SDS011;38934;52.690;6.184;2023-11-19T07:59:49;35.10;;;6.22;;
53052;SDS011;38934;52.690;6.184;2023-11-19T08:02:15;35.33;;;6.53;;
53052;SDS011;38934;52.690;6.184;2023-11-19T08:04:40;31.88;;;5.97;;
53052;SDS011;38934;52.690;6.184;2023-11-19T08:07:10;38.53;;;6.13;;
53052;SDS011;38934;52.690;6.184;2023-11-19T08:09:36;33.67;;;6.45;;
53052;SDS011;38934;52.690;6.184;2023-11-19T08:12:02;39.58;;;6.53;;
53052;SDS011;38934;52.690;6.184;2023-11-19T08:14:28;37.83;;;5.80;;
53052;SDS011;38934;52.690;6.184;2023-11-19T08:16:54;34.05;;;6.10;;
53052;SDS011;38934;52.690;6.184;2023-11-19T08:19:20;40.53;;;6.60;;
53052;SDS011;38934;52.690;6.184;2023-11-19T08:21:45;39.33;;;6.72;;
53052;SDS011;38934;52.690;6.184;2023-11-19T08:24:11;31.05;;;5.88;;
53052;SDS011;38934;52.690;6.184;2023-11-19T08:26:36;39.55;;;6.03;;
53052;SDS011;38934;52.690;6.184;2023-11-19T08:29:02;41.25;;;5.85;;
53052;SDS011;38934;52.690;6.184;2023-11-19T08:31:28;40.38;;;6.30;;
53052;SDS011;38934;52.690;6.184;2023-11-19T08:33:54;36.03;;;6.32;;
53052;SDS011;38934;52.690;6.184;2023-11-19T08:36:19;37.65;;;6.30;;
53052;SDS011;38934;52.690;6.184;2023-11-19T08:38:45;34.15;;;6.38;;
53052;SDS011;38934;52.690;6.184;2023-11-19T08:41:13;31.95;;;6.93;;
53052;SDS011;38934;52.690;6.184;2023-11-19T08:43:38;37.83;;;6.63;;
53052;SDS011;38934;52.690;6.184;2023-11-19T08:46:09;34.25;;;7.10;;
53052;SDS011;38934;52.690;6.184;2023-11-19T08:48:35;39.55;;;7.20;;
53052;SDS011;38934;52.690;6.184;2023-11-19T08:51:01;35.15;;;5.82;;
53052;SDS011;38934;52.690;6.184;2023-11-19T08:53:27;44.17;;;6.43;;
53052;SDS011;38934;52.690;6.184;2023-11-19T08:55:52;35.63;;;6.60;;
53052;SDS011;38934;52.690;6.184;2023-11-19T08:58:18;39.72;;;6.20;;
53052;SDS011;38934;52.690;6.184;2023-11-19T09:00:43;39.88;;;6.80;;
53052;SDS011;38934;52.690;6.184;2023-11-19T09:03:09;37.75;;;6.15;;
53052;SDS011;38934;52.690;6.184;2023-11-19T09:05:34;33.17;;;5.88;;
53052;SDS011;38934;52.690;6.184;2023-11-19T09:08:00;35.92;;;6.18;;
53052;SDS011;38934;52.690;6.184;2023-11-19T09:10:26;30.15;;;5.30;;
53052;SDS011;38934;52.690;6.184;2023-11-19T09:12:52;33.90;;;6.60;;
53052;SDS011;38934;52.690;6.184;2023-11-19T09:15:18;35.72;;;6.30;;
53052;SDS011;38934;52.690;6.184;2023-11-19T09:17:43;31.08;;;6.10;;
53052;SDS011;38934;52.690;6.184;2023-11-19T09:20:10;32.08;;;6.57;;
53052;SDS011;38934;52.690;6.184;2023-11-19T09:22:39;42.58;;;6.05;;
53052;SDS011;38934;52.690;6.184;2023-11-19T09:25:05;37.67;;;6.85;;
53052;SDS011;38934;52.690;6.184;2023-11-19T09:27:31;38.10;;;7.03;;
53052;SDS011;38934;52.690;6.184;2023-11-19T09:29:56;34.60;;;6.10;;
53052;SDS011;38934;52.690;6.184;2023-11-19T09:32:23;33.35;;;6.13;;
53052;SDS011;38934;52.690;6.184;2023-11-19T09:34:49;42.17;;;5.82;;
53052;SDS011;38934;52.690;6.184;2023-11-19T09:37:15;32.10;;;5.80;;
53052;SDS011;38934;52.690;6.184;2023-11-19T09:39:41;28.73;;;5.13;;
53052;SDS011;38934;52.690;6.184;2023-11-19T09:42:09;35.35;;;6.15;;
53052;SDS011;38934;52.690;6.184;2023-11-19T09:44:36;30.15;;;5.50;;
53052;SDS011;38934;52.690;6.184;2023-11-19T09:47:04;39.35;;;6.25;;
53052;SDS011;38934;52.690;6.184;2023-11-19T09:49:30;33.45;;;6.22;;
53052;SDS011;38934;52.690;6.184;2023-11-19T09:51:56;34.67;;;5.43;;
53052;SDS011;38934;52.690;6.184;2023-11-19T09:54:22;35.20;;;5.63;;
53052;SDS011;38934;52.690;6.184;2023-11-19T09:56:48;32.53;;;4.90;;
53052;SDS011;38934;52.690;6.184;2023-11-19T09:59:14;31.25;;;5.45;;
53052;SDS011;38934;52.690;6.184;2023-11-19T10:01:40;28.42;;;5.55;;
53052;SDS011;38934;52.690;6.184;2023-11-19T10:04:07;35.67;;;5.85;;
53052;SDS011;38934;52.690;6.184;2023-11-19T10:06:34;28.27;;;5.43;;
53052;SDS011;38934;52.690;6.184;2023-11-19T10:09:00;32.72;;;5.57;;
53052;SDS011;38934;52.690;6.184;2023-11-19T10:11:26;30.27;;;6.20;;
53052;SDS011;38934;52.690;6.184;2023-11-19T10:13:53;25.75;;;5.60;;
53052;SDS011;38934;52.690;6.184;2023-11-19T10:16:19;23.30;;;5.40;;
53052;SDS011;38934;52.690;6.184;2023-11-19T10:18:45;31.88;;;5.43;;
53052;SDS011;38934;52.690;6.184;2023-11-19T10:21:12;31.05;;;5.50;;
53052;SDS011;38934;52.690;6.184;2023-11-19T10:23:48;32.90;;;6.22;;
53052;SDS011;38934;52.690;6.184;2023-11-19T10:26:15;37.58;;;6.93;;
53052;SDS011;38934;52.690;6.184;2023-11-19T10:28:41;34.60;;;6.00;;
53052;SDS011;38934;52.690;6.184;2023-11-19T10:31:09;31.58;;;6.20;;
53052;SDS011;38934;52.690;6.184;2023-11-19T10:33:35;33.53;;;6.80;;
53052;SDS011;38934;52.690;6.184;2023-11-19T10:36:00;36.33;;;6.75;;
53052;SDS011;38934;52.690;6.184;2023-11-19T10:38:26;34.25;;;7.47;;
53052;SDS011;38934;52.690;6.184;2023-11-19T10:40:52;41.90;;;7.45;;
53052;SDS011;38934;52.690;6.184;2023-11-19T10:43:19;48.97;;;7.18;;
53052;SDS011;38934;52.690;6.184;2023-11-19T10:45:48;40.95;;;6.55;;
53052;SDS011;38934;52.690;6.184;2023-11-19T10:48:13;38.85;;;7.13;;
53052;SDS011;38934;52.690;6.184;2023-11-19T10:50:40;35.83;;;6.57;;
53052;SDS011;38934;52.690;6.184;2023-11-19T10:53:08;34.67;;;6.78;;
53052;SDS011;38934;52.690;6.184;2023-11-19T10:55:37;44.03;;;6.40;;
53052;SDS011;38934;52.690;6.184;2023-11-19T10:58:04;33.13;;;5.68;;
53052;SDS011;38934;52.690;6.184;2023-11-19T11:00:44;37.97;;;6.80;;
53052;SDS011;38934;52.690;6.184;2023-11-19T11:03:20;33.80;;;5.75;;
53052;SDS011;38934;52.690;6.184;2023-11-19T11:05:50;37.40;;;6.57;;
53052;SDS011;38934;52.690;6.184;2023-11-19T11:08:18;38.58;;;6.90;;
53052;SDS011;38934;52.690;6.184;2023-11-19T11:10:55;33.25;;;5.78;;
53052;SDS011;38934;52.690;6.184;2023-11-19T11:13:23;34.80;;;6.32;;
53052;SDS011;38934;52.690;6.184;2023-11-19T11:15:50;36.35;;;6.65;;
53052;SDS011;38934;52.690;6.184;2023-11-19T11:18:16;39.40;;;7.22;;
53052;SDS011;38934;52.690;6.184;2023-11-19T11:20:44;42.05;;;7.18;;
53052;SDS011;38934;52.690;6.184;2023-11-19T11:28:37;37.42;;;6.40;;
53052;SDS011;38934;52.690;6.184;2023-11-19T11:31:30;42.13;;;6.55;;
53052;SDS011;38934;52.690;6.184;2023-11-19T11:37:13;42.90;;;6.55;;
53052;SDS011;38934;52.690;6.184;2023-11-19T11:39:40;35.20;;;6.35;;
53052;SDS011;38934;52.690;6.184;2023-11-19T11:45:06;38.45;;;6.18;;
53052;SDS011;38934;52.690;6.184;2023-11-19T11:50:17;42.97;;;6.15;;
53052;SDS011;38934;52.690;6.184;2023-11-19T11:55:27;44.45;;;6.65;;
53052;SDS011;38934;52.690;6.184;2023-11-19T11:58:20;40.33;;;6.22;;
53052;SDS011;38934;52.690;6.184;2023-11-19T12:01:00;43.22;;;6.88;;
53052;SDS011;38934;52.690;6.184;2023-11-19T12:03:28;44.47;;;6.20;;
53052;SDS011;38934;52.690;6.184;2023-11-19T12:05:55;26.92;;;5.18;;
53052;SDS011;38934;52.690;6.184;2023-11-19T12:08:24;31.83;;;5.10;;
53052;SDS011;38934;52.690;6.184;2023-11-19T12:10:52;39.35;;;6.10;;
53052;SDS011;38934;52.690;6.184;2023-11-19T12:13:19;31.45;;;5.63;;
53052;SDS011;38934;52.690;6.184;2023-11-19T12:18:23;34.35;;;6.07;;
53052;SDS011;38934;52.690;6.184;2023-11-19T12:20:50;30.52;;;6.10;;
53052;SDS011;38934;52.690;6.184;2023-11-19T12:23:16;33.55;;;5.35;;
53052;SDS011;38934;52.690;6.184;2023-11-19T12:25:42;28.42;;;4.65;;
53052;SDS011;38934;52.690;6.184;2023-11-19T12:28:13;25.05;;;4.20;;
53052;SDS011;38934;52.690;6.184;2023-11-19T12:30:42;29.17;;;4.77;;
53052;SDS011;38934;52.690;6.184;2023-11-19T12:33:08;31.42;;;5.45;;
53052;SDS011;38934;52.690;6.184;2023-11-19T12:35:41;29.58;;;5.10;;
53052;SDS011;38934;52.690;6.184;2023-11-19T12:38:07;31.50;;;5.30;;
53052;SDS011;38934;52.690;6.184;2023-11-19T12:40:43;29.05;;;5.55;;
53052;SDS011;38934;52.690;6.184;2023-11-19T12:43:08;24.38;;;4.45;;
53052;SDS011;38934;52.690;6.184;2023-11-19T12:45:35;27.30;;;6.05;;
53052;SDS011;38934;52.690;6.184;2023-11-19T12:48:04;28.30;;;5.10;;
53052;SDS011;38934;52.690;6.184;2023-11-19T12:50:49;25.95;;;4.70;;
53052;SDS011;38934;52.690;6.184;2023-11-19T12:53:16;29.92;;;4.72;;
53052;SDS011;38934;52.690;6.184;2023-11-19T12:55:43;25.58;;;5.40;;
53052;SDS011;38934;52.690;6.184;2023-11-19T12:58:09;29.40;;;5.50;;
53052;SDS011;38934;52.690;6.184;2023-11-19T13:00:34;31.23;;;4.95;;
53052;SDS011;38934;52.690;6.184;2023-11-19T13:03:00;27.50;;;5.20;;
53052;SDS011;38934;52.690;6.184;2023-11-19T13:05:32;33.92;;;5.85;;
53052;SDS011;38934;52.690;6.184;2023-11-19T13:10:27;25.73;;;5.15;;
53052;SDS011;38934;52.690;6.184;2023-11-19T13:13:07;33.40;;;4.78;;
53052;SDS011;38934;52.690;6.184;2023-11-19T13:15:33;31.42;;;5.30;;
53052;SDS011;38934;52.690;6.184;2023-11-19T13:18:00;30.55;;;4.88;;
53052;SDS011;38934;52.690;6.184;2023-11-19T13:20:26;30.63;;;5.55;;
53052;SDS011;38934;52.690;6.184;2023-11-19T13:23:02;27.73;;;5.18;;
53052;SDS011;38934;52.690;6.184;2023-11-19T13:25:29;26.48;;;5.28;;
53052;SDS011;38934;52.690;6.184;2023-11-19T13:27:55;38.22;;;4.95;;
53052;SDS011;38934;52.690;6.184;2023-11-19T13:30:22;31.80;;;6.00;;
53052;SDS011;38934;52.690;6.184;2023-11-19T13:32:48;31.40;;;4.88;;
53052;SDS011;38934;52.690;6.184;2023-11-19T13:35:15;36.70;;;5.95;;
53052;SDS011;38934;52.690;6.184;2023-11-19T13:37:42;26.48;;;4.70;;
53052;SDS011;38934;52.690;6.184;2023-11-19T13:40:08;26.30;;;5.32;;
53052;SDS011;38934;52.690;6.184;2023-11-19T13:42:41;31.35;;;5.25;;
53052;SDS011;38934;52.690;6.184;2023-11-19T13:47:35;26.55;;;4.93;;
53052;SDS011;38934;52.690;6.184;2023-11-19T13:50:01;35.67;;;5.63;;
53052;SDS011;38934;52.690;6.184;2023-11-19T13:52:31;22.63;;;4.93;;
53052;SDS011;38934;52.690;6.184;2023-11-19T13:54:56;28.60;;;5.18;;
53052;SDS011;38934;52.690;6.184;2023-11-19T13:57:22;27.77;;;4.97;;
53052;SDS011;38934;52.690;6.184;2023-11-19T13:59:47;26.60;;;4.40;;
53052;SDS011;38934;52.690;6.184;2023-11-19T14:02:13;35.60;;;5.13;;
53052;SDS011;38934;52.690;6.184;2023-11-19T14:04:39;30.60;;;4.88;;
53052;SDS011;38934;52.690;6.184;2023-11-19T14:07:04;28.27;;;4.43;;
53052;SDS011;38934;52.690;6.184;2023-11-19T14:09:30;26.98;;;4.75;;
53052;SDS011;38934;52.690;6.184;2023-11-19T14:11:55;26.13;;;4.68;;
53052;SDS011;38934;52.690;6.184;2023-11-19T14:14:21;34.47;;;5.25;;
53052;SDS011;38934;52.690;6.184;2023-11-19T14:16:46;24.85;;;5.03;;
53052;SDS011;38934;52.690;6.184;2023-11-19T14:19:12;35.90;;;5.13;;
53052;SDS011;38934;52.690;6.184;2023-11-19T14:21:38;26.15;;;5.20;;
53052;SDS011;38934;52.690;6.184;2023-11-19T14:24:04;24.33;;;4.35;;
53052;SDS011;38934;52.690;6.184;2023-11-19T14:26:30;22.77;;;4.00;;
53052;SDS011;38934;52.690;6.184;2023-11-19T14:28:56;27.35;;;4.25;;
53052;SDS011;38934;52.690;6.184;2023-11-19T14:31:21;25.50;;;4.85;;
53052;SDS011;38934;52.690;6.184;2023-11-19T14:33:47;29.02;;;4.57;;
53052;SDS011;38934;52.690;6.184;2023-11-19T14:36:13;27.15;;;4.88;;
53052;SDS011;38934;52.690;6.184;2023-11-19T14:38:39;25.60;;;4.40;;
53052;SDS011;38934;52.690;6.184;2023-11-19T14:41:05;30.20;;;5.15;;
53052;SDS011;38934;52.690;6.184;2023-11-19T14:43:31;28.58;;;5.20;;
53052;SDS011;38934;52.690;6.184;2023-11-19T14:45:56;28.27;;;5.10;;
53052;SDS011;38934;52.690;6.184;2023-11-19T14:48:22;25.40;;;4.90;;
53052;SDS011;38934;52.690;6.184;2023-11-19T14:50:48;27.80;;;5.88;;
53052;SDS011;38934;52.690;6.184;2023-11-19T14:53:14;29.00;;;5.28;;
53052;SDS011;38934;52.690;6.184;2023-11-19T14:55:40;25.40;;;5.40;;
53052;SDS011;38934;52.690;6.184;2023-11-19T14:58:06;28.75;;;5.13;;